Time;durP1;ratioP1;P1;durP2;ratioP2;P2;SDS_P1;SDS_P2;PMS_P1;PMS_P2;Temp;Humidity;BMP_temperature;BMP_pressure;BME280_temperature;BME280_humidity;BME280_pressure;Samples;Min_cycle;Max_cycle;Signal;HPM_P1;HPM_P2
2021/04/20 00:01:19;;;;;;;182.02;84.13;;;;;;;4.50;77.51;98672.00;2162832;82;21156;-83
2021/04/20 00:04:22;;;;;;;186.28;89.47;;;;;;;4.38;77.94;98671.33;2163272;82;21333;-83
2021/04/20 00:07:24;;;;;;;171.20;77.92;;;;;;;4.32;77.89;98671.91;2162867;82;21156;-84
2021/04/20 00:10:26;;;;;;;178.75;78.02;;;;;;;4.29;77.91;98673.47;2162728;82;21147;-83
2021/04/20 00:13:28;;;;;;;188.35;76.50;;;;;;;4.31;77.90;98662.51;2162758;82;21151;-83
2021/04/20 00:16:30;;;;;;;202.38;83.58;;;;;;;4.38;78.01;98664.03;2162839;82;21536;-83
2021/04/20 00:19:32;;;;;;;220.57;85.85;;;;;;;4.43;78.00;98661.84;2162474;82;21135;-83
2021/04/20 00:22:34;;;;;;;217.18;86.22;;;;;;;4.48;77.90;98658.33;2162826;82;21159;-84
2021/04/20 00:25:36;;;;;;;223.93;81.42;;;;;;;4.50;77.89;98656.44;2162497;82;21175;-83
2021/04/20 00:28:38;;;;;;;167.60;69.37;;;;;;;4.55;77.93;98655.52;2162719;82;21152;-83
2021/04/20 00:31:41;;;;;;;190.68;78.15;;;;;;;4.61;78.32;98656.73;2162541;82;22103;-83
2021/04/20 00:34:43;;;;;;;95.65;49.10;;;;;;;4.68;78.27;98656.02;2162533;82;21175;-83
2021/04/20 00:37:45;;;;;;;169.40;72.10;;;;;;;4.75;78.96;98640.20;2162497;82;21180;-83
2021/04/20 00:40:48;;;;;;;190.75;86.87;;;;;;;4.83;78.48;98648.56;2163844;82;21189;-84
2021/04/20 00:43:49;;;;;;;213.85;97.70;;;;;;;4.91;78.43;98640.06;2164173;82;21149;-83
2021/04/20 00:46:52;;;;;;;200.53;93.10;;;;;;;4.95;78.36;98635.75;2163800;82;21759;-83
2021/04/20 00:49:53;;;;;;;197.00;89.20;;;;;;;5.01;78.20;98636.44;2163769;82;21280;-83
2021/04/20 00:52:55;;;;;;;180.65;85.07;;;;;;;5.08;78.30;98628.41;2163764;82;21299;-82
2021/04/20 00:55:57;;;;;;;170.53;83.20;;;;;;;5.10;78.17;98634.75;2164130;82;21335;-83
2021/04/20 00:58:58;;;;;;;101.47;49.83;;;;;;;5.03;77.93;98641.03;2164097;82;21644;-83
2021/04/20 01:02:00;;;;;;;114.32;56.77;;;;;;;4.94;79.20;98639.76;2164119;82;22166;-83
2021/04/20 01:05:02;;;;;;;76.10;39.65;;;;;;;4.89;78.95;98631.61;2164447;82;21157;-82
2021/04/20 01:08:03;;;;;;;80.87;41.88;;;;;;;4.88;79.25;98625.61;2164438;82;21150;-83
2021/04/20 01:11:06;;;;;;;94.90;47.78;;;;;;;4.92;79.46;98618.34;2164433;82;21169;-82
2021/04/20 01:14:08;;;;;;;83.25;42.73;;;;;;;5.03;79.56;98618.97;2164105;82;21700;-83
2021/04/20 01:17:10;;;;;;;101.85;48.10;;;;;;;5.09;79.45;98619.66;2164102;82;21707;-83
2021/04/20 01:20:13;;;;;;;82.97;41.30;;;;;;;5.14;79.30;98623.13;2164327;82;21623;-82
2021/04/20 01:23:15;;;;;;;66.00;33.28;;;;;;;5.20;79.34;98623.00;2164201;82;21213;-82
2021/04/20 01:26:16;;;;;;;54.10;31.10;;;;;;;5.25;79.67;98622.09;2164301;82;21842;-82
2021/04/20 01:29:18;;;;;;;21.50;16.00;;;;;;;5.30;79.43;98618.55;2164187;82;21137;-82
2021/04/20 01:32:20;;;;;;;29.85;19.23;;;;;;;5.32;79.68;98614.05;2164110;82;21137;-83
2021/04/20 01:35:22;;;;;;;27.32;17.35;;;;;;;5.33;79.58;98613.90;2164084;82;21106;-82
2021/04/20 01:38:24;;;;;;;30.17;17.73;;;;;;;5.33;79.71;98615.20;2164255;81;21688;-82
2021/04/20 01:41:26;;;;;;;28.30;17.27;;;;;;;5.37;79.69;98613.11;2164452;82;21264;-82
2021/04/20 01:44:28;;;;;;;24.40;16.10;;;;;;;5.36;79.72;98613.59;2164807;82;21156;-83
2021/04/20 01:47:29;;;;;;;20.80;15.28;;;;;;;5.38;79.79;98616.84;2164765;82;21145;-83
2021/04/20 01:50:31;;;;;;;22.75;14.43;;;;;;;5.35;79.91;98616.34;2164402;82;21311;-82
2021/04/20 01:53:33;;;;;;;22.90;15.75;;;;;;;5.31;79.98;98617.13;2164738;82;21188;-82
2021/04/20 01:56:34;;;;;;;20.02;14.38;;;;;;;5.34;79.94;98623.80;2164544;82;21185;-82
2021/04/20 01:59:36;;;;;;;22.00;15.35;;;;;;;5.35;79.95;98621.53;2164736;82;21177;-83
2021/04/20 02:02:37;;;;;;;21.82;15.23;;;;;;;5.33;79.74;98628.66;2164486;82;21616;-82
2021/04/20 02:05:39;;;;;;;21.80;16.10;;;;;;;5.34;79.70;98625.09;2164407;82;21168;-82
2021/04/20 02:08:41;;;;;;;23.60;15.72;;;;;;;5.39;79.80;98627.59;2164513;82;21636;-83
2021/04/20 02:11:43;;;;;;;24.82;16.37;;;;;;;5.39;79.51;98622.41;2164391;82;21193;-82
2021/04/20 02:14:45;;;;;;;18.60;13.32;;;;;;;5.46;79.68;98625.69;2164628;82;21161;-82
2021/04/20 02:17:47;;;;;;;23.55;16.48;;;;;;;5.45;79.44;98623.57;2164721;82;21186;-82
2021/04/20 02:20:50;;;;;;;20.35;15.20;;;;;;;5.37;79.16;98615.70;2164746;82;21590;-82
2021/04/20 02:23:53;;;;;;;21.25;14.20;;;;;;;5.27;79.12;98618.38;2164714;82;21190;-83
2021/04/20 02:26:54;;;;;;;20.82;14.78;;;;;;;5.18;79.13;98624.45;2164610;82;21692;-83
2021/04/20 02:29:56;;;;;;;24.25;16.20;;;;;;;5.12;79.29;98617.25;2164734;82;21149;-83
2021/04/20 02:32:57;;;;;;;19.25;13.25;;;;;;;5.07;79.36;98627.27;2164405;82;21149;-83
2021/04/20 02:35:59;;;;;;;25.12;15.43;;;;;;;5.02;79.52;98621.20;2164367;82;21157;-83
2021/04/20 02:39:04;;;;;;;20.02;14.98;;;;;;;4.97;79.50;98622.14;2164320;82;21173;-83
2021/04/20 02:42:06;;;;;;;23.22;14.93;;;;;;;4.96;79.47;98622.29;2164388;82;21150;-83
2021/04/20 02:45:08;;;;;;;21.77;15.35;;;;;;;4.94;79.50;98622.44;2164375;82;21145;-83
2021/04/20 02:48:10;;;;;;;23.87;15.70;;;;;;;4.91;79.63;98617.52;2164345;82;22183;-82
2021/04/20 02:51:12;;;;;;;23.25;17.85;;;;;;;4.89;79.63;98618.16;2164514;82;21186;-82
2021/04/20 02:54:15;;;;;;;23.15;17.23;;;;;;;4.86;79.57;98618.45;2164564;82;21170;-82
2021/04/20 02:57:17;;;;;;;28.57;17.90;;;;;;;4.85;79.72;98623.31;2164806;82;21481;-82
2021/04/20 03:00:18;;;;;;;28.32;18.90;;;;;;;4.82;79.62;98622.28;2164671;82;21625;-83
2021/04/20 03:03:20;;;;;;;28.42;17.37;;;;;;;4.76;79.65;98613.33;2164395;82;21652;-82
2021/04/20 03:06:22;;;;;;;27.32;18.57;;;;;;;4.73;79.74;98617.97;2164203;82;21283;-84
2021/04/20 03:09:24;;;;;;;37.58;21.35;;;;;;;4.66;79.65;98609.94;2164474;82;21166;-83
2021/04/20 03:12:25;;;;;;;39.25;21.82;;;;;;;4.65;79.73;98618.69;2163854;82;21150;-83
2021/04/20 03:15:28;;;;;;;39.05;20.90;;;;;;;4.60;79.72;98620.09;2164207;82;21732;-83
2021/04/20 03:18:29;;;;;;;35.80;18.75;;;;;;;4.54;79.93;98620.17;2164431;82;21176;-83
2021/04/20 03:21:31;;;;;;;35.80;20.10;;;;;;;4.50;80.05;98618.84;2164249;82;21189;-82
2021/04/20 03:24:33;;;;;;;48.40;23.50;;;;;;;4.44;79.84;98621.52;2164816;82;21763;-81
2021/04/20 03:27:35;;;;;;;33.67;18.95;;;;;;;4.43;79.97;98625.55;2165157;82;21308;-83
2021/04/20 03:30:37;;;;;;;29.23;18.35;;;;;;;4.42;79.96;98621.33;2164293;82;21696;-83
2021/04/20 03:33:39;;;;;;;38.30;19.37;;;;;;;4.38;79.93;98613.00;2164514;82;21142;-83
2021/04/20 03:36:41;;;;;;;41.92;21.65;;;;;;;4.35;80.03;98609.41;2164454;82;21585;-83
2021/04/20 03:39:43;;;;;;;34.45;21.62;;;;;;;4.40;80.06;98616.77;2163898;81;21207;-83
2021/04/20 03:42:45;;;;;;;37.10;20.05;;;;;;;4.40;79.96;98619.37;2162556;82;21183;-83
2021/04/20 03:45:47;;;;;;;38.50;21.37;;;;;;;4.39;79.88;98615.11;2162657;82;21642;-82
2021/04/20 03:48:49;;;;;;;45.23;24.15;;;;;;;4.38;79.89;98618.66;2162881;82;21192;-82
2021/04/20 03:51:51;;;;;;;42.03;22.95;;;;;;;4.35;79.75;98626.73;2162540;82;21175;-82
2021/04/20 03:54:52;;;;;;;44.42;23.47;;;;;;;4.34;79.79;98625.11;2162801;82;21563;-83
2021/04/20 03:57:54;;;;;;;46.90;23.90;;;;;;;4.32;79.73;98623.14;2162524;82;21563;-82
2021/04/20 04:00:56;;;;;;;41.35;22.90;;;;;;;4.44;79.71;98624.59;2162864;82;21143;-83
2021/04/20 04:03:58;;;;;;;40.90;23.57;;;;;;;4.67;79.74;98620.67;2162677;82;21163;-82
2021/04/20 04:07:00;;;;;;;40.70;24.80;;;;;;;5.04;79.53;98626.27;2162624;82;21147;-83
2021/04/20 04:10:01;;;;;;;31.82;20.75;;;;;;;5.45;79.17;98627.47;2163227;82;21159;-83
2021/04/20 04:13:03;;;;;;;38.42;24.87;;;;;;;5.90;78.81;98626.53;2163900;82;21195;-83
2021/04/20 04:16:05;;;;;;;47.20;24.63;;;;;;;6.27;78.16;98625.81;2163440;82;21309;-83
2021/04/20 04:19:06;;;;;;;40.28;28.52;;;;;;;6.64;77.28;98621.28;2162734;82;21619;-82
2021/04/20 04:22:09;;;;;;;36.98;26.05;;;;;;;6.89;76.39;98623.00;2162497;82;21174;-83
2021/04/20 04:25:11;;;;;;;41.35;24.43;;;;;;;7.16;76.11;98625.03;2162904;82;21195;-82
2021/04/20 04:28:12;;;;;;;32.93;20.05;;;;;;;7.58;76.15;98623.10;2162933;82;21147;-81
2021/04/20 04:31:14;;;;;;;28.07;22.98;;;;;;;7.99;75.04;98621.80;2162513;82;21135;-84
2021/04/20 04:34:16;;;;;;;28.47;17.80;;;;;;;8.29;74.59;98622.88;2162483;82;21166;-84
2021/04/20 04:37:19;;;;;;;22.25;16.73;;;;;;;8.49;74.67;98625.45;2162491;82;21196;-83
2021/04/20 04:40:21;;;;;;;24.67;17.37;;;;;;;8.74;74.09;98623.56;2163209;82;21185;-84
2021/04/20 04:43:23;;;;;;;25.48;18.32;;;;;;;9.01;73.69;98627.52;2164446;82;21192;-83
2021/04/20 04:46:25;;;;;;;20.85;16.55;;;;;;;9.28;73.08;98626.72;2164327;82;21633;-83
2021/04/20 04:49:26;;;;;;;28.45;18.23;;;;;;;9.50;72.46;98624.59;2164111;82;21156;-83
2021/04/20 04:52:28;;;;;;;27.02;18.70;;;;;;;9.76;71.78;98628.65;2164334;82;21130;-83
2021/04/20 04:55:30;;;;;;;24.75;16.32;;;;;;;9.91;71.50;98634.73;2164344;82;21140;-83
2021/04/20 04:58:34;;;;;;;20.65;16.97;;;;;;;9.95;70.04;98625.53;2164172;82;21272;-85
2021/04/20 05:01:36;;;;;;;24.20;17.73;;;;;;;9.81;69.80;98623.22;2164235;82;21288;-85
2021/04/20 05:04:38;;;;;;;24.67;17.80;;;;;;;9.66;69.41;98625.78;2164359;82;21153;-87
2021/04/20 05:07:39;;;;;;;26.82;18.80;;;;;;;9.52;68.87;98627.87;2164445;82;21599;-83
2021/04/20 05:10:41;;;;;;;24.63;16.05;;;;;;;9.33;68.77;98623.92;2164410;82;21153;-86
2021/04/20 05:13:43;;;;;;;24.63;15.93;;;;;;;9.34;68.88;98623.42;2164362;82;21153;-84
2021/04/20 05:16:45;;;;;;;27.45;19.50;;;;;;;9.28;67.95;98628.02;2164455;82;21306;-83
2021/04/20 05:19:47;;;;;;;28.57;18.55;;;;;;;9.26;68.97;98629.51;2164139;82;21600;-84
2021/04/20 05:22:49;;;;;;;24.27;16.25;;;;;;;9.24;68.48;98628.06;2164148;82;21612;-84
2021/04/20 05:25:51;;;;;;;28.32;19.92;;;;;;;9.37;68.12;98636.13;2164292;82;21173;-81
2021/04/20 05:28:53;;;;;;;26.57;20.50;;;;;;;9.41;67.93;98630.37;2164288;82;21311;-83
2021/04/20 05:31:55;;;;;;;21.20;16.62;;;;;;;9.57;68.29;98632.55;2164310;82;21311;-84
2021/04/20 05:34:57;;;;;;;20.70;18.10;;;;;;;9.53;66.96;98635.22;2164036;82;21751;-80
2021/04/20 05:37:59;;;;;;;25.45;17.57;;;;;;;9.56;67.65;98635.66;2164093;82;21198;-83
2021/04/20 05:41:02;;;;;;;24.92;18.07;;;;;;;9.65;67.57;98635.11;2163392;81;21154;-82
2021/04/20 05:44:04;;;;;;;25.70;17.92;;;;;;;9.63;67.58;98635.29;2162772;82;21575;-83
2021/04/20 05:47:06;;;;;;;23.22;19.12;;;;;;;9.73;67.63;98638.97;2162636;82;21135;-83
2021/04/20 05:50:08;;;;;;;23.18;17.82;;;;;;;9.88;67.62;98639.03;2162588;82;21127;-80
2021/04/20 05:53:09;;;;;;;23.32;18.48;;;;;;;9.95;66.71;98642.04;2162563;82;21151;-81
2021/04/20 05:56:12;;;;;;;21.55;15.98;;;;;;;9.98;67.38;98635.16;2162646;82;21179;-82
2021/04/20 05:59:16;;;;;;;22.60;18.35;;;;;;;10.18;66.90;98639.89;2162623;82;21135;-82
2021/04/20 06:02:18;;;;;;;20.92;15.95;;;;;;;10.29;67.17;98630.31;2162377;82;21746;-83
2021/04/20 06:05:21;;;;;;;20.60;16.62;;;;;;;10.39;66.72;98630.86;2162737;82;21192;-81
2021/04/20 06:08:22;;;;;;;27.10;17.52;;;;;;;10.47;66.70;98631.27;2162492;82;21174;-82
2021/04/20 06:11:24;;;;;;;21.70;17.62;;;;;;;10.54;66.66;98626.45;2162426;82;21274;-83
2021/04/20 06:14:26;;;;;;;26.07;18.82;;;;;;;10.56;66.42;98634.61;2162562;82;21630;-80
2021/04/20 06:17:29;;;;;;;21.15;15.32;;;;;;;10.60;66.52;98637.17;2162432;82;21322;-80
2021/04/20 06:20:31;;;;;;;24.82;17.37;;;;;;;10.66;65.86;98633.84;2162714;82;21172;-81
2021/04/20 06:23:33;;;;;;;22.73;16.80;;;;;;;10.67;66.32;98636.27;2162603;82;21187;-81
2021/04/20 06:26:35;;;;;;;27.25;16.82;;;;;;;10.68;66.14;98633.96;2162452;82;21151;-83
2021/04/20 06:29:38;;;;;;;22.55;16.85;;;;;;;10.71;66.06;98630.19;2162576;82;21151;-83
2021/04/20 06:32:40;;;;;;;22.95;16.35;;;;;;;10.83;66.38;98630.03;2163045;82;21156;-83
2021/04/20 06:35:42;;;;;;;20.77;14.80;;;;;;;10.92;66.21;98626.31;2162605;82;21135;-82
2021/04/20 06:38:43;;;;;;;19.27;14.50;;;;;;;10.99;66.25;98629.02;2162923;82;21151;-81
2021/04/20 06:41:45;;;;;;;18.42;14.07;;;;;;;11.07;66.13;98632.84;2163967;81;21221;-83
2021/04/20 06:44:47;;;;;;;16.82;13.05;;;;;;;11.15;65.98;98631.89;2164670;82;21177;-82
2021/04/20 06:47:49;;;;;;;20.25;16.80;;;;;;;11.22;65.63;98637.52;2164093;82;21310;-80
2021/04/20 06:50:52;;;;;;;18.37;13.48;;;;;;;11.25;65.46;98635.86;2164401;82;21134;-81
2021/04/20 06:53:54;;;;;;;18.70;13.22;;;;;;;11.30;65.75;98636.60;2166484;82;21264;-79
2021/04/20 06:56:56;;;;;;;17.70;13.45;;;;;;;11.34;64.67;98632.13;2165124;82;21118;-82
2021/04/20 06:59:58;;;;;;;13.95;11.18;;;;;;;11.40;65.23;98632.67;2164889;82;21145;-80
2021/04/20 07:03:00;;;;;;;9.68;8.68;;;;;;;11.47;63.79;98638.49;2164787;82;21308;-82
2021/04/20 07:06:02;;;;;;;10.68;9.25;;;;;;;11.49;62.07;98649.09;2164542;82;22175;-82
2021/04/20 07:09:04;;;;;;;7.85;7.20;;;;;;;11.48;62.53;98634.37;2164265;82;21169;-81
2021/04/20 07:12:06;;;;;;;7.83;7.03;;;;;;;11.52;62.24;98637.41;2164201;82;21153;-80
2021/04/20 07:15:08;;;;;;;8.30;6.42;;;;;;;11.58;60.52;98635.37;2164227;82;21153;-81
2021/04/20 07:18:11;;;;;;;6.37;5.80;;;;;;;11.64;61.44;98629.37;2164219;82;21299;-80
2021/04/20 07:21:14;;;;;;;8.10;7.30;;;;;;;11.71;60.27;98632.88;2164477;82;21165;-82
2021/04/20 07:24:16;;;;;;;7.47;6.78;;;;;;;11.78;60.34;98628.48;2164546;82;21166;-82
2021/04/20 07:27:17;;;;;;;7.03;6.33;;;;;;;11.84;59.29;98633.52;2164255;82;21307;-82
2021/04/20 07:30:19;;;;;;;7.05;5.95;;;;;;;11.91;58.96;98633.08;2164385;82;21315;-82
2021/04/20 07:33:21;;;;;;;6.92;6.22;;;;;;;11.98;58.88;98627.38;2164357;82;21759;-82
2021/04/20 07:36:23;;;;;;;5.47;5.05;;;;;;;12.16;59.63;98627.72;2164441;82;21173;-81
2021/04/20 07:39:26;;;;;;;6.33;5.72;;;;;;;12.25;56.73;98627.04;2164397;82;21602;-82
2021/04/20 07:42:28;;;;;;;7.50;6.55;;;;;;;12.33;56.64;98619.52;2162812;82;21164;-82
2021/04/20 07:45:30;;;;;;;6.80;6.20;;;;;;;12.47;57.53;98623.86;2162563;82;21191;-82
2021/04/20 07:48:31;;;;;;;7.12;6.50;;;;;;;12.55;57.63;98618.45;2162820;82;21587;-82
2021/04/20 07:51:34;;;;;;;8.10;6.05;;;;;;;13.07;58.20;98611.30;2162551;82;21160;-82
2021/04/20 07:54:35;;;;;;;5.10;4.67;;;;;;;13.28;56.33;98602.98;2162658;82;21148;-84
2021/04/20 07:57:37;;;;;;;4.78;4.35;;;;;;;13.28;56.33;98602.98;2162502;82;21167;-83
2021/04/20 08:00:39;;;;;;;5.17;4.53;;;;;;;13.61;54.56;98614.84;2162756;82;21171;-86
2021/04/20 08:03:41;;;;;;;4.70;4.30;;;;;;;13.74;55.15;98608.30;2162819;82;21203;-85
2021/04/20 08:06:44;;;;;;;3.98;3.67;;;;;;;13.74;54.05;98615.38;2162766;82;21171;-83
2021/04/20 08:09:46;;;;;;;4.45;3.70;;;;;;;13.61;52.59;98616.97;2162742;82;21143;-82
2021/04/20 08:12:48;;;;;;;4.28;3.90;;;;;;;13.61;53.54;98614.34;2162880;82;21159;-86
2021/04/20 08:15:50;;;;;;;4.45;4.05;;;;;;;13.60;53.38;98613.23;2162695;82;21610;-86
2021/04/20 08:18:52;;;;;;;3.98;3.67;;;;;;;13.60;52.52;98617.17;2162677;82;21151;-83
2021/04/20 08:21:54;;;;;;;4.12;3.62;;;;;;;13.63;52.68;98612.84;2162551;82;21591;-84
2021/04/20 08:24:55;;;;;;;6.62;5.22;;;;;;;13.73;52.24;98618.52;2162480;82;21171;-85
2021/04/20 08:27:58;;;;;;;3.62;3.33;;;;;;;13.76;53.02;98612.03;2162532;82;21588;-83
2021/04/20 08:31:00;;;;;;;5.83;4.05;;;;;;;13.64;51.33;98613.96;2162518;82;21155;-82
2021/04/20 08:34:02;;;;;;;3.52;2.55;;;;;;;13.46;50.42;98618.19;2162737;82;21182;-83
2021/04/20 08:37:06;;;;;;;4.67;3.37;;;;;;;13.24;48.83;98611.75;2164244;82;21136;-83
2021/04/20 08:40:12;;;;;;;3.98;3.08;;;;;;;13.04;48.50;98603.79;2163128;82;21289;-84
2021/04/20 08:43:13;;;;;;;2.45;2.33;;;;;;;12.90;48.57;98602.14;2162338;82;21135;-84
2021/04/20 08:46:16;;;;;;;3.92;3.45;;;;;;;12.86;48.40;98603.52;2162795;82;21576;-83
2021/04/20 08:49:17;;;;;;;3.50;3.20;;;;;;;12.83;47.99;98601.80;2162941;82;21206;-82
2021/04/20 08:52:19;;;;;;;2.62;2.50;;;;;;;12.84;48.53;98598.97;2162873;82;21179;-82
2021/04/20 08:55:21;;;;;;;2.90;2.40;;;;;;;12.86;47.44;98606.66;2162862;82;21175;-80
2021/04/20 08:58:23;;;;;;;3.47;2.65;;;;;;;12.77;45.69;98614.70;2162499;82;21143;-82
2021/04/20 09:01:25;;;;;;;3.30;3.00;;;;;;;12.69;46.00;98608.30;2162548;82;21329;-82
2021/04/20 09:04:27;;;;;;;3.20;3.00;;;;;;;12.85;45.79;98590.09;2163304;82;21199;-78
2021/04/20 09:07:29;;;;;;;3.00;2.70;;;;;;;13.05;46.08;98598.03;2163827;82;21183;-81
2021/04/20 09:10:32;;;;;;;3.22;2.58;;;;;;;13.31;44.01;98594.17;2163338;82;21544;-82
2021/04/20 09:13:34;;;;;;;4.33;3.33;;;;;;;13.24;44.91;98594.66;2162828;82;21166;-82
2021/04/20 09:16:35;;;;;;;4.40;3.70;;;;;;;13.24;44.91;98594.66;2162487;82;21167;-82
2021/04/20 09:19:37;;;;;;;3.98;3.60;;;;;;;13.29;45.62;98593.58;2162543;82;21139;-83
2021/04/20 09:22:39;;;;;;;3.70;3.35;;;;;;;13.46;46.09;98601.09;2162718;82;21179;-80
2021/04/20 09:25:44;;;;;;;7.20;3.77;;;;;;;13.46;46.09;98601.09;2162877;82;21174;-83
2021/04/20 09:28:50;;;;;;;4.25;3.25;;;;;;;13.60;46.67;98599.57;2162483;82;21301;-80
2021/04/20 09:31:57;;;;;;;4.90;3.60;;;;;;;13.65;45.00;98589.27;2162660;82;21140;-83
2021/04/20 09:35:08;;;;;;;5.58;3.33;;;;;;;13.76;45.42;98585.72;2162572;82;21585;-81
2021/04/20 09:38:15;;;;;;;2.40;2.20;;;;;;;13.90;44.91;98585.52;2162492;82;21140;-82
2021/04/20 09:41:18;;;;;;;3.10;2.80;;;;;;;14.05;42.42;98590.55;2162384;81;21293;-82
2021/04/20 09:44:22;;;;;;;3.12;2.77;;;;;;;14.18;43.41;98595.01;2143447;82;21187;-81
2021/04/20 09:47:28;;;;;;;2.50;2.30;;;;;;;14.34;43.45;98581.89;2162683;82;21321;-82
2021/04/20 09:50:33;;;;;;;2.80;1.90;;;;;;;14.49;39.98;98596.47;2162422;82;21707;-82
2021/04/20 09:53:37;;;;;;;3.05;2.85;;;;;;;14.51;41.69;98587.84;2162585;82;21725;-81
2021/04/20 09:56:56;;;;;;;3.35;2.87;;;;;;;14.55;42.27;98588.77;2162553;82;21616;-81
2021/04/20 09:59:57;;;;;;;2.62;2.52;;;;;;;14.65;42.52;98575.45;2162696;82;21203;-81
2021/04/20 10:03:00;;;;;;;3.00;2.80;;;;;;;14.82;42.55;98568.39;2162645;82;21607;-81
2021/04/20 10:06:02;;;;;;;3.55;3.30;;;;;;;15.15;42.84;98572.96;2162947;82;21143;-82
2021/04/20 10:09:04;;;;;;;4.17;3.42;;;;;;;15.35;42.85;98572.31;2162639;82;21147;-85
2021/04/20 10:12:05;;;;;;;4.10;3.80;;;;;;;15.58;42.15;98571.77;2163291;82;21151;-82
2021/04/20 10:15:08;;;;;;;3.80;3.50;;;;;;;15.74;42.10;98567.02;2162718;82;21613;-81
2021/04/20 10:18:10;;;;;;;3.08;2.80;;;;;;;15.85;41.78;98569.74;2162960;82;21162;-82
2021/04/20 10:21:11;;;;;;;3.50;3.20;;;;;;;15.75;40.13;98569.94;2162908;82;21152;-82
2021/04/20 10:24:31;;;;;;;3.25;3.05;;;;;;;15.67;40.93;98569.70;2162980;82;21167;-81
2021/04/20 10:27:33;;;;;;;3.62;3.33;;;;;;;15.57;41.19;98563.55;2162863;82;21635;-81
2021/04/20 10:30:36;;;;;;;4.22;3.83;;;;;;;15.51;40.79;98564.91;2162634;82;21116;-82
2021/04/20 10:33:38;;;;;;;6.85;4.22;;;;;;;15.36;40.90;98559.45;2162826;82;21591;-82
2021/04/20 10:36:40;;;;;;;6.67;4.08;;;;;;;15.24;41.22;98557.70;2162925;82;21591;-81
2021/04/20 10:39:42;;;;;;;3.20;2.90;;;;;;;15.25;41.97;98560.11;2162664;82;21107;-83
2021/04/20 10:42:47;;;;;;;4.00;3.10;;;;;;;15.34;41.37;98555.39;2162767;82;21179;-82
2021/04/20 10:45:48;;;;;;;3.42;3.22;;;;;;;15.26;40.77;98555.13;2162752;82;21167;-82
2021/04/20 10:48:50;;;;;;;3.08;2.87;;;;;;;15.26;40.81;98557.77;2162658;82;21134;-82
2021/04/20 10:51:56;;;;;;;2.45;2.25;;;;;;;15.32;40.39;98542.93;2162817;82;21150;-82
2021/04/20 10:54:58;;;;;;;4.80;2.67;;;;;;;15.35;40.15;98549.89;2162653;82;21126;-83
2021/04/20 10:58:00;;;;;;;4.35;2.45;;;;;;;15.35;39.62;98547.26;2162811;82;21567;-82
2021/04/20 11:01:01;;;;;;;2.85;2.50;;;;;;;15.35;38.79;98540.66;2162607;82;21124;-82
2021/04/20 11:04:03;;;;;;;4.30;2.65;;;;;;;15.33;39.09;98537.44;2162670;82;21190;-82
2021/04/20 11:07:05;;;;;;;2.72;2.52;;;;;;;15.36;39.05;98540.15;2162828;82;21168;-81
2021/04/20 11:10:07;;;;;;;3.42;3.12;;;;;;;15.35;38.80;98541.17;2162604;82;21148;-82
2021/04/20 11:13:09;;;;;;;3.40;3.20;;;;;;;15.34;39.88;98529.81;2162691;82;21654;-82
2021/04/20 11:16:11;;;;;;;2.83;2.62;;;;;;;15.34;39.10;98532.45;2162947;82;21156;-81
2021/04/20 11:19:13;;;;;;;3.10;2.90;;;;;;;15.25;39.46;98527.14;2162818;82;21170;-81
2021/04/20 11:22:15;;;;;;;3.12;2.50;;;;;;;15.25;39.11;98523.70;2162612;82;21182;-80
2021/04/20 11:25:16;;;;;;;3.00;2.70;;;;;;;15.29;38.85;98520.95;2162943;82;21223;-84
2021/04/20 11:28:18;;;;;;;2.52;2.42;;;;;;;15.36;39.32;98513.28;2162904;82;21177;-80
2021/04/20 11:31:20;;;;;;;2.12;2.00;;;;;;;15.55;40.16;98506.75;2162528;82;21151;-81
2021/04/20 11:34:22;;;;;;;3.20;2.37;;;;;;;15.67;38.22;98512.95;2162891;82;21595;-85
2021/04/20 11:37:24;;;;;;;2.30;2.10;;;;;;;15.74;37.93;98509.75;2163668;82;21289;-83
2021/04/20 11:40:25;;;;;;;2.77;2.42;;;;;;;15.84;35.98;98513.20;2163244;82;21290;-85
2021/04/20 11:43:27;;;;;;;4.17;2.35;;;;;;;15.81;36.78;98493.31;2129950;83;21636;-84
2021/04/20 11:46:30;;;;;;;3.10;1.80;;;;;;;15.90;36.78;98495.95;2147195;83;21617;-82
2021/04/20 11:49:32;;;;;;;3.12;2.35;;;;;;;16.07;35.64;98500.16;2147125;83;21141;-83
2021/04/20 11:52:33;;;;;;;2.45;2.25;;;;;;;16.29;36.75;98491.80;2148512;83;21772;-81
2021/04/20 11:55:35;;;;;;;3.30;2.12;;;;;;;16.47;36.46;98491.27;2147103;83;21316;-82
2021/04/20 11:58:37;;;;;;;2.55;2.35;;;;;;;16.62;36.20;98492.18;2147241;83;21177;-82
2021/04/20 12:01:39;;;;;;;2.02;1.92;;;;;;;16.67;36.33;98489.69;2147863;83;21332;-82
2021/04/20 12:04:46;;;;;;;3.02;2.47;;;;;;;16.74;35.05;98486.99;2147594;83;21206;-82
2021/04/20 12:07:45;;;;;;;3.60;2.70;;;;;;;16.61;36.29;98488.45;2147520;83;21607;-81
2021/04/20 12:10:47;;;;;;;3.25;2.98;;;;;;;16.42;36.29;98484.51;2147568;83;21346;-81
2021/04/20 12:13:49;;;;;;;3.00;2.62;;;;;;;16.29;35.90;98480.72;2147072;83;21308;-82
2021/04/20 12:16:51;;;;;;;2.40;2.20;;;;;;;16.16;35.21;98482.19;2146926;83;21587;-81
2021/04/20 12:19:52;;;;;;;3.22;3.02;;;;;;;16.10;35.65;98479.93;2147267;83;21749;-82
2021/04/20 12:22:54;;;;;;;2.40;2.20;;;;;;;16.16;35.74;98482.19;2147233;83;21145;-83
2021/04/20 12:25:56;;;;;;;2.75;2.55;;;;;;;16.37;35.54;98476.46;2147516;83;21573;-82
2021/04/20 12:28:58;;;;;;;2.52;2.30;;;;;;;16.63;35.30;98469.20;2147445;83;21272;-83
2021/04/20 12:32:00;;;;;;;3.08;2.30;;;;;;;16.90;35.27;98477.08;2147075;83;21567;-81
2021/04/20 12:35:02;;;;;;;2.17;2.08;;;;;;;17.09;34.02;98480.45;2146984;83;21119;-83
2021/04/20 12:38:04;;;;;;;2.20;2.10;;;;;;;17.22;34.92;98468.88;2147055;83;21135;-83
2021/04/20 12:41:06;;;;;;;2.58;2.30;;;;;;;17.37;34.38;98463.13;2146956;83;21193;-83
2021/04/20 12:44:08;;;;;;;2.35;2.15;;;;;;;17.37;34.29;98469.23;2155355;82;21111;-82
2021/04/20 12:47:09;;;;;;;2.27;2.08;;;;;;;17.29;34.38;98470.91;2156236;82;21613;-82
2021/04/20 12:50:12;;;;;;;3.62;2.50;;;;;;;17.18;34.02;98473.00;2156399;82;21281;-82
2021/04/20 12:53:13;;;;;;;2.30;2.10;;;;;;;16.93;33.12;98465.27;2157671;82;21273;-78
2021/04/20 12:56:15;;;;;;;3.00;2.60;;;;;;;16.80;34.07;98462.28;2157992;82;21308;-81
2021/04/20 12:59:16;;;;;;;2.40;2.30;;;;;;;16.75;34.59;98459.00;2158385;82;21309;-76
2021/04/20 13:02:18;;;;;;;3.87;3.50;;;;;;;16.59;33.43;98458.28;2158367;83;21260;-82
2021/04/20 13:05:20;;;;;;;4.37;4.03;;;;;;;16.43;34.84;98457.57;2156054;83;21763;-82
2021/04/20 13:08:23;;;;;;;2.45;2.25;;;;;;;16.15;35.04;98461.57;2156752;83;21114;-81
2021/04/20 13:11:26;;;;;;;2.75;2.60;;;;;;;16.00;35.30;98455.88;2156142;82;21757;-83
2021/04/20 13:14:29;;;;;;;3.37;2.75;;;;;;;15.87;35.34;98456.80;2156120;83;21796;-82
2021/04/20 13:17:32;;;;;;;2.95;2.72;;;;;;;15.78;35.01;98451.52;2156199;82;21309;-82
2021/04/20 13:20:33;;;;;;;2.40;2.20;;;;;;;15.73;35.03;98455.34;2156033;82;21324;-82
2021/04/20 13:23:35;;;;;;;2.55;2.05;;;;;;;15.67;35.47;98446.17;2156228;82;21324;-81
2021/04/20 13:26:38;;;;;;;3.90;3.27;;;;;;;15.69;35.33;98448.88;2156736;82;21320;-82
2021/04/20 13:29:40;;;;;;;3.35;2.75;;;;;;;15.69;35.44;98442.79;2156066;82;21531;-82
2021/04/20 13:32:42;;;;;;;3.30;3.00;;;;;;;15.70;35.22;98438.61;2156268;82;21141;-82
2021/04/20 13:35:44;;;;;;;2.67;2.47;;;;;;;15.78;35.25;98439.64;2156058;82;21138;-80
2021/04/20 13:38:46;;;;;;;3.22;2.87;;;;;;;15.86;35.40;98427.98;2156230;83;21740;-84
2021/04/20 13:41:49;;;;;;;2.75;2.55;;;;;;;15.97;35.63;98429.08;2156164;83;21315;-82
2021/04/20 13:44:52;;;;;;;2.58;2.15;;;;;;;16.12;35.74;98429.52;2155970;82;21170;-82
2021/04/20 13:47:54;;;;;;;3.05;2.85;;;;;;;16.27;35.45;98429.12;2156065;83;21303;-82
2021/04/20 13:50:55;;;;;;;3.10;2.72;;;;;;;16.31;35.27;98425.02;2155929;82;22144;-83
2021/04/20 13:53:57;;;;;;;4.45;3.10;;;;;;;16.31;35.49;98425.02;2156073;82;21304;-83
2021/04/20 13:56:59;;;;;;;2.27;2.08;;;;;;;16.37;35.22;98423.63;2155929;82;21170;-84
2021/04/20 14:00:04;;;;;;;2.55;2.45;;;;;;;16.34;34.22;98433.81;2155948;82;21268;-83
2021/04/20 14:03:07;;;;;;;2.35;2.15;;;;;;;16.30;35.11;98423.41;2156915;82;21612;-84
2021/04/20 14:06:09;;;;;;;2.10;2.00;;;;;;;16.32;35.26;98420.02;2156550;82;21168;-82
2021/04/20 14:09:13;;;;;;;2.98;2.15;;;;;;;16.21;34.47;98422.39;2156717;82;21300;-82
2021/04/20 14:12:15;;;;;;;2.70;2.50;;;;;;;16.18;34.92;98420.69;2156229;82;21149;-84